Time;durP1;ratioP1;P1;durP2;ratioP2;P2;SDS_P1;SDS_P2;PMS_P1;PMS_P2;Temp;Humidity;BMP_temperature;BMP_pressure;BME280_temperature;BME280_humidity;BME280_pressure;Samples;Min_cycle;Max_cycle;Signal;HPM_P1;HPM_P2
2023/08/02 00:01:48;;;;;;;9.50;2.60;;;;;;;14.14;100.00;99248.47;4989090;28;20901;-82
2023/08/02 00:04:21;;;;;;;5.85;2.25;;;;;;;14.24;100.00;99246.09;5022858;28;20428;-81
2023/08/02 00:06:49;;;;;;;6.05;2.33;;;;;;;14.25;100.00;99249.63;4991621;28;20437;-83
2023/08/02 00:09:22;;;;;;;6.18;2.25;;;;;;;14.24;100.00;99248.03;4991055;28;20424;-82
2023/08/02 00:11:57;;;;;;;6.67;2.20;;;;;;;14.21;100.00;99248.69;4999908;28;20487;-81
2023/08/02 00:14:25;;;;;;;7.30;2.40;;;;;;;14.25;100.00;99250.44;4996728;28;20430;-81
2023/08/02 00:16:59;;;;;;;6.20;2.22;;;;;;;14.20;100.00;99247.91;4997404;28;20444;-81
2023/08/02 00:19:33;;;;;;;7.35;2.38;;;;;;;14.23;100.00;99247.22;4998063;28;20928;-82
2023/08/02 00:22:01;;;;;;;5.68;2.33;;;;;;;14.18;100.00;99252.13;4997003;28;20438;-81
2023/08/02 00:24:34;;;;;;;7.87;2.67;;;;;;;14.23;100.00;99249.16;5012946;28;20430;-81
2023/08/02 00:27:07;;;;;;;8.63;2.50;;;;;;;14.22;100.00;99245.63;5001285;28;20413;-82
2023/08/02 00:29:41;;;;;;;6.10;2.72;;;;;;;14.13;100.00;99236.72;4998019;28;20434;-81
2023/08/02 00:32:15;;;;;;;8.50;2.75;;;;;;;14.11;100.00;99247.19;4989446;28;20427;-82
2023/08/02 00:34:54;;;;;;;6.38;2.70;;;;;;;14.13;100.00;99242.19;4992978;28;20435;-81
2023/08/02 00:37:27;;;;;;;6.53;2.50;;;;;;;14.03;100.00;99242.63;4997575;28;21362;-82
2023/08/02 00:40:00;;;;;;;6.43;2.97;;;;;;;14.03;100.00;99248.91;4993488;28;20451;-82
2023/08/02 00:42:35;;;;;;;7.82;2.80;;;;;;;14.04;100.00;99252.44;4990474;28;20447;-82
2023/08/02 00:45:09;;;;;;;6.38;2.92;;;;;;;14.01;100.00;99250.38;4992848;28;20434;-81
2023/08/02 00:47:43;;;;;;;6.07;3.30;;;;;;;13.99;100.00;99249.91;4992357;28;20452;-81
2023/08/02 00:50:17;;;;;;;8.07;3.13;;;;;;;14.01;100.00;99256.63;5022802;28;20438;-82
2023/08/02 00:52:51;;;;;;;6.60;3.20;;;;;;;14.04;100.00;99249.69;4991618;28;20430;-81
2023/08/02 00:55:25;;;;;;;8.32;3.33;;;;;;;13.95;100.00;99247.06;4990862;28;20448;-82
2023/08/02 00:57:53;;;;;;;5.90;3.08;;;;;;;13.98;100.00;99242.84;5005600;28;20444;-81
2023/08/02 01:00:22;;;;;;;8.90;3.47;;;;;;;13.98;100.00;99246.38;4991806;28;20429;-82
2023/08/02 01:02:56;;;;;;;7.53;3.20;;;;;;;14.04;100.00;99252.44;4993745;28;20982;-82
2023/08/02 01:05:40;;;;;;;8.10;3.35;;;;;;;14.04;100.00;99247.75;4988745;28;20434;-83
2023/08/02 01:08:12;;;;;;;9.52;3.30;;;;;;;13.94;100.00;99242.72;5023095;28;20450;-82
2023/08/02 01:10:50;;;;;;;6.40;3.30;;;;;;;14.05;100.00;99241.16;4994242;28;20433;-81
2023/08/02 01:13:24;;;;;;;7.70;3.10;;;;;;;14.06;100.00;99250.97;4994537;28;20981;-81
2023/08/02 01:15:59;;;;;;;6.35;3.00;;;;;;;14.01;100.00;99253.13;4995966;28;20434;-82
2023/08/02 01:18:33;;;;;;;7.22;3.10;;;;;;;14.01;100.00;99245.69;5028547;28;20442;-81
2023/08/02 01:21:03;;;;;;;7.15;3.25;;;;;;;14.02;100.00;99249.25;4997337;28;20427;-81
2023/08/02 01:23:31;;;;;;;7.78;3.22;;;;;;;14.03;100.00;99250.81;5029682;28;20924;-81
2023/08/02 01:26:01;;;;;;;6.82;3.20;;;;;;;14.06;100.00;99250.16;4997746;28;20839;-81
2023/08/02 01:28:39;;;;;;;6.20;3.00;;;;;;;13.98;100.00;99249.13;5004504;28;20430;-81
2023/08/02 01:31:15;;;;;;;6.75;3.13;;;;;;;14.00;100.00;99255.03;4993862;28;20789;-82
2023/08/02 01:33:53;;;;;;;8.13;3.20;;;;;;;13.93;100.00;99250.13;4987872;28;21285;-80
2023/08/02 01:36:27;;;;;;;8.48;3.45;;;;;;;13.98;100.00;99235.44;4989564;28;20459;-80
2023/08/02 01:39:00;;;;;;;7.88;3.30;;;;;;;14.03;100.00;99242.63;4995804;28;20438;-81
2023/08/02 01:41:34;;;;;;;9.33;3.43;;;;;;;13.97;100.00;99228.38;4989769;28;20439;-80
2023/08/02 01:44:07;;;;;;;9.73;3.60;;;;;;;13.98;100.00;99235.44;5022088;28;20434;-80
2023/08/02 01:46:35;;;;;;;6.80;3.45;;;;;;;14.00;100.00;99235.88;5005235;28;20469;-81
2023/08/02 01:49:08;;;;;;;8.60;3.40;;;;;;;14.03;100.00;99240.69;4992454;28;20425;-82
2023/08/02 01:51:43;;;;;;;9.60;3.55;;;;;;;14.16;100.00;99241.50;4993076;28;20432;-81
2023/08/02 01:54:16;;;;;;;9.18;3.85;;;;;;;13.97;100.00;99242.03;4988548;28;20818;-82
2023/08/02 01:56:49;;;;;;;8.00;3.58;;;;;;;13.97;100.00;99238.50;4987746;28;20433;-81
2023/08/02 01:59:22;;;;;;;8.65;3.90;;;;;;;13.89;100.00;99237.44;4990499;28;20432;-81
2023/08/02 02:01:56;;;;;;;9.48;3.88;;;;;;;13.95;100.00;99238.84;4989901;28;20434;-81
2023/08/02 02:04:24;;;;;;;9.18;3.70;;;;;;;13.89;100.00;99232.81;4994268;28;20439;-81
2023/08/02 02:06:59;;;;;;;7.05;3.80;;;;;;;13.94;100.00;99229.03;5004910;28;20446;-81
2023/08/02 02:09:27;;;;;;;8.60;3.88;;;;;;;13.85;100.00;99225.59;5011290;28;20944;-82
2023/08/02 02:12:05;;;;;;;9.30;4.00;;;;;;;13.87;100.00;99221.38;5017535;28;20445;-81
2023/08/02 02:14:38;;;;;;;11.52;4.07;;;;;;;13.92;100.00;99223.91;5000109;28;20437;-81
2023/08/02 02:17:11;;;;;;;9.25;4.00;;;;;;;13.94;100.00;99218.09;4997712;28;20459;-81
2023/08/02 02:19:45;;;;;;;9.23;4.25;;;;;;;13.99;100.00;99226.09;4999992;28;20432;-81
2023/08/02 02:22:19;;;;;;;8.00;3.92;;;;;;;14.00;100.00;99221.41;4999263;28;20825;-81
2023/08/02 02:24:47;;;;;;;11.23;3.90;;;;;;;13.93;100.00;99225.53;5000920;28;20977;-82
2023/08/02 02:27:20;;;;;;;9.63;4.00;;;;;;;13.99;100.00;99217.91;4999985;28;20451;-81
2023/08/02 02:29:54;;;;;;;7.75;3.75;;;;;;;13.97;100.00;99217.41;5005880;28;20467;-81
2023/08/02 02:32:22;;;;;;;9.10;3.78;;;;;;;13.91;100.00;99213.31;4996403;28;20440;-81
2023/08/02 02:34:55;;;;;;;9.88;4.03;;;;;;;13.93;100.00;99213.75;4999287;28;20437;-81
2023/08/02 02:37:29;;;;;;;6.72;3.75;;;;;;;13.93;100.00;99213.75;4991435;28;20430;-81
2023/08/02 02:40:03;;;;;;;9.80;4.10;;;;;;;14.00;100.00;99205.78;4993626;28;20447;-81
2023/08/02 02:42:38;;;;;;;8.67;4.30;;;;;;;14.03;100.00;99207.06;4993899;28;21110;-83
2023/08/02 02:45:11;;;;;;;9.35;4.25;;;;;;;13.88;100.00;99206.59;4995219;28;20429;-82
2023/08/02 02:47:40;;;;;;;9.23;3.92;;;;;;;13.90;100.00;99204.28;4994874;28;20453;-81
2023/08/02 02:50:09;;;;;;;8.33;4.30;;;;;;;13.89;100.00;99207.38;4992962;28;20443;-82
2023/08/02 02:52:43;;;;;;;8.60;4.15;;;;;;;13.94;100.00;99201.69;4995162;28;20428;-81
2023/08/02 02:55:16;;;;;;;10.55;4.10;;;;;;;13.95;100.00;99206.03;4992137;28;20452;-81
2023/08/02 02:57:50;;;;;;;9.80;4.57;;;;;;;13.92;100.00;99214.88;5008632;28;20460;-81
2023/08/02 03:00:24;;;;;;;8.98;4.15;;;;;;;13.84;100.00;99213.88;4993552;28;20437;-82
2023/08/02 03:02:52;;;;;;;11.45;4.53;;;;;;;13.86;100.00;99208.06;4999738;28;20793;-81
2023/08/02 03:05:25;;;;;;;10.05;4.40;;;;;;;13.88;100.00;99211.22;4993732;28;20437;-82
2023/08/02 03:07:59;;;;;;;9.02;4.50;;;;;;;13.83;100.00;99201.31;4995108;28;20449;-82
2023/08/02 03:10:33;;;;;;;10.80;4.30;;;;;;;13.93;100.00;99213.75;4999702;28;20433;-82
2023/08/02 03:13:06;;;;;;;7.65;4.13;;;;;;;13.90;100.00;99208.97;5013800;28;20434;-82
2023/08/02 03:15:39;;;;;;;9.83;4.13;;;;;;;13.92;100.00;99209.44;5003691;28;20435;-82
2023/08/02 03:18:13;;;;;;;7.93;3.80;;;;;;;13.91;100.00;99208.63;4999172;28;21051;-82
2023/08/02 03:20:42;;;;;;;9.32;4.10;;;;;;;13.92;100.00;99206.69;5004496;28;20421;-80
2023/08/02 03:23:17;;;;;;;10.90;4.10;;;;;;;13.86;100.00;99213.53;4999196;28;20433;-81
2023/08/02 03:25:50;;;;;;;9.30;4.03;;;;;;;13.93;100.00;99209.13;5002170;28;20435;-82
2023/08/02 03:28:23;;;;;;;10.43;4.18;;;;;;;13.90;100.00;99208.97;4999029;28;20430;-81
2023/08/02 03:30:56;;;;;;;9.90;3.80;;;;;;;13.93;100.00;99208.28;4996948;28;20452;-82
2023/08/02 03:33:30;;;;;;;8.88;3.70;;;;;;;13.82;100.00;99199.72;4999693;28;21055;-81
2023/08/02 03:36:03;;;;;;;8.23;3.78;;;;;;;13.91;100.00;99205.91;4998452;28;20899;-82
2023/08/02 03:38:33;;;;;;;9.38;3.97;;;;;;;13.89;100.00;99204.63;4997359;28;20964;-82
2023/08/02 03:41:01;;;;;;;8.32;3.60;;;;;;;13.84;100.00;99202.94;5000328;28;20412;-83
2023/08/02 03:43:34;;;;;;;8.03;4.30;;;;;;;13.93;100.00;99206.38;4999851;28;20436;-81
2023/08/02 03:46:07;;;;;;;9.80;4.20;;;;;;;13.87;100.00;99196.00;4998998;28;20433;-81
2023/08/02 03:48:40;;;;;;;7.82;3.90;;;;;;;13.83;100.00;99203.28;4999168;28;20441;-81
2023/08/02 03:51:13;;;;;;;9.77;4.10;;;;;;;13.75;100.00;99203.03;5000485;28;20429;-81
2023/08/02 03:53:48;;;;;;;8.87;3.93;;;;;;;13.82;100.00;99201.66;5014745;28;20430;-81
2023/08/02 03:56:21;;;;;;;7.03;3.72;;;;;;;13.75;100.00;99197.56;5030108;28;20437;-81
2023/08/02 03:58:49;;;;;;;10.68;4.20;;;;;;;13.75;100.00;99200.28;4997518;28;20437;-81
2023/08/02 04:01:23;;;;;;;9.07;3.70;;;;;;;13.78;100.00;99196.06;5002154;28;20789;-82
2023/08/02 04:03:56;;;;;;;7.75;3.80;;;;;;;13.73;100.00;99204.50;4994024;28;20428;-80
2023/08/02 04:06:29;;;;;;;7.35;3.67;;;;;;;13.81;100.00;99208.25;5023930;28;20935;-82
2023/08/02 04:09:03;;;;;;;8.85;3.75;;;;;;;13.92;100.00;99201.22;4992973;28;20426;-82
2023/08/02 04:11:37;;;;;;;8.90;4.10;;;;;;;13.73;100.00;99209.97;4993495;28;20446;-80
2023/08/02 04:14:10;;;;;;;6.88;4.30;;;;;;;13.82;100.00;99202.44;4989384;28;20452;-83
2023/08/02 04:16:43;;;;;;;9.02;4.28;;;;;;;13.82;100.00;99212.59;4994518;28;20456;-80
2023/08/02 04:19:16;;;;;;;8.70;4.67;;;;;;;13.76;100.00;99206.56;4993108;28;20435;-83
2023/08/02 04:21:49;;;;;;;9.10;4.50;;;;;;;13.73;100.00;99213.50;4990462;28;20728;-81
2023/08/02 04:24:24;;;;;;;10.20;4.97;;;;;;;13.82;100.00;99207.91;4991803;28;20427;-80
2023/08/02 04:26:52;;;;;;;9.75;5.00;;;;;;;13.84;100.00;99210.34;4990400;28;20429;-80
2023/08/02 04:29:20;;;;;;;10.57;4.75;;;;;;;13.81;100.00;99205.53;4998357;28;20442;-80
2023/08/02 04:31:53;;;;;;;9.43;5.03;;;;;;;13.82;100.00;99207.91;4991518;28;20957;-81
2023/08/02 04:34:27;;;;;;;8.68;4.93;;;;;;;13.90;100.00;99206.25;4994519;28;20442;-81
2023/08/02 04:37:00;;;;;;;10.20;4.90;;;;;;;13.93;100.00;99205.56;4990846;28;20438;-81
2023/08/02 04:39:29;;;;;;;10.70;4.78;;;;;;;13.94;100.00;99212.63;4998602;28;20442;-81
2023/08/02 04:42:03;;;;;;;7.50;4.63;;;;;;;13.94;100.00;99215.38;5007195;28;20429;-81
2023/08/02 04:44:36;;;;;;;8.73;4.65;;;;;;;13.88;100.00;99216.72;4995456;28;20440;-80
2023/08/02 04:47:09;;;;;;;10.23;4.82;;;;;;;13.93;100.00;99221.97;5012753;28;20929;-81
2023/08/02 04:49:42;;;;;;;7.90;4.63;;;;;;;13.88;100.00;99212.06;5009698;28;20787;-80
2023/08/02 04:52:11;;;;;;;10.88;4.65;;;;;;;13.92;100.00;99210.25;4993667;28;21952;-81
2023/08/02 04:54:45;;;;;;;11.18;5.15;;;;;;;14.03;100.00;99212.53;4991378;28;20426;-82
2023/08/02 04:57:18;;;;;;;9.45;4.93;;;;;;;13.97;100.00;99211.16;5007843;28;20442;-81
2023/08/02 04:59:47;;;;;;;10.82;5.22;;;;;;;14.09;100.00;99211.97;4990484;28;20445;-82
2023/08/02 05:02:21;;;;;;;8.15;4.93;;;;;;;13.97;100.00;99211.16;4987708;28;20435;-81
2023/08/02 05:04:54;;;;;;;10.38;5.03;;;;;;;14.04;100.00;99212.19;5005884;28;20802;-82
2023/08/02 05:07:22;;;;;;;10.10;5.00;;;;;;;14.04;100.00;99206.72;4991947;28;20455;-82
2023/08/02 05:09:57;;;;;;;7.65;4.70;;;;;;;14.12;100.00;99219.50;4992298;28;20425;-81
2023/08/02 05:12:26;;;;;;;9.73;4.93;;;;;;;14.10;100.00;99221.78;5007684;28;20439;-82
2023/08/02 05:14:54;;;;;;;8.88;4.55;;;;;;;14.06;100.00;99215.41;5021503;28;20434;-80
2023/08/02 05:17:30;;;;;;;8.13;4.20;;;;;;;14.12;100.00;99224.97;4997222;28;20438;-80
2023/08/02 05:20:03;;;;;;;8.50;4.22;;;;;;;14.10;100.00;99227.25;5001717;28;20437;-81
2023/08/02 05:22:32;;;;;;;8.65;4.35;;;;;;;14.06;100.00;99217.34;5028645;28;20427;-82
2023/08/02 05:25:07;;;;;;;8.57;4.45;;;;;;;13.98;100.00;99212.78;5000698;28;20781;-82
2023/08/02 05:27:40;;;;;;;9.10;4.40;;;;;;;13.99;100.00;99215.16;5016730;28;20524;-81
2023/08/02 05:30:10;;;;;;;8.57;4.53;;;;;;;14.00;100.00;99216.75;4996890;28;21887;-81
2023/08/02 05:32:38;;;;;;;8.35;4.35;;;;;;;14.08;100.00;99215.84;4999931;28;20433;-80
2023/08/02 05:35:11;;;;;;;8.05;4.43;;;;;;;14.18;100.00;99227.50;4994831;28;20430;-80
2023/08/02 05:37:44;;;;;;;7.30;4.60;;;;;;;14.13;100.00;99223.06;5001480;28;20783;-82
2023/08/02 05:40:19;;;;;;;8.85;4.70;;;;;;;14.16;100.00;99218.84;4994756;28;20445;-82
2023/08/02 05:42:52;;;;;;;9.07;4.90;;;;;;;14.21;100.00;99219.41;5024486;28;20428;-82
2023/08/02 05:45:25;;;;;;;9.52;4.90;;;;;;;14.17;100.00;99213.03;5020465;28;20443;-82
2023/08/02 05:47:59;;;;;;;10.75;5.38;;;;;;;14.22;100.00;99209.25;4988233;28;20449;-81
2023/08/02 05:50:29;;;;;;;8.82;5.00;;;;;;;14.24;100.00;99209.72;5005067;28;20437;-81
2023/08/02 05:53:02;;;;;;;8.90;5.22;;;;;;;14.25;100.00;99205.84;4990122;28;20430;-82
2023/08/02 05:55:32;;;;;;;9.82;5.60;;;;;;;14.29;100.00;99195.81;4990445;28;20884;-81
2023/08/02 05:58:05;;;;;;;10.07;5.70;;;;;;;14.28;100.00;99192.28;4991122;28;20447;-82
2023/08/02 06:00:38;;;;;;;10.52;6.22;;;;;;;14.32;100.00;99181.47;4995910;28;20913;-82
2023/08/02 06:03:11;;;;;;;11.52;6.30;;;;;;;14.44;100.00;99186.94;4988516;28;20782;-81
2023/08/02 06:05:44;;;;;;;10.40;6.70;;;;;;;14.57;100.00;99176.78;4996811;28;20913;-82
2023/08/02 06:08:17;;;;;;;13.73;6.90;;;;;;;14.57;100.00;99176.78;4993797;28;20438;-81
2023/08/02 06:10:47;;;;;;;13.70;6.57;;;;;;;14.66;100.00;99178.63;4992415;28;20814;-81
2023/08/02 06:13:20;;;;;;;12.73;6.70;;;;;;;14.61;100.00;99179.59;4989740;28;20427;-81
2023/08/02 06:15:48;;;;;;;12.53;6.80;;;;;;;14.54;100.00;99179.38;4990542;28;20425;-81
2023/08/02 06:18:21;;;;;;;16.15;6.70;;;;;;;14.57;100.00;99184.16;5022311;28;20442;-81
2023/08/02 06:20:54;;;;;;;16.25;6.97;;;;;;;14.68;100.00;99188.09;4990156;28;21643;-81
2023/08/02 06:23:27;;;;;;;11.43;7.00;;;;;;;14.80;100.00;99187.25;4995178;28;20845;-81
2023/08/02 06:25:57;;;;;;;12.60;7.00;;;;;;;14.84;100.00;99188.16;5003166;28;20432;-82
2023/08/02 06:28:30;;;;;;;13.23;7.00;;;;;;;14.91;100.00;99191.13;4991083;28;20432;-80
2023/08/02 06:30:58;;;;;;;13.73;7.00;;;;;;;14.92;100.00;99189.97;4994243;28;20437;-81
2023/08/02 06:33:31;;;;;;;12.27;6.78;;;;;;;15.10;100.00;99201.47;4989780;28;20438;-81
2023/08/02 06:36:00;;;;;;;11.70;6.60;;;;;;;15.01;100.00;99197.25;5005181;28;20450;-81
2023/08/02 06:38:33;;;;;;;11.18;6.30;;;;;;;14.98;100.00;99193.28;4991255;28;20456;-82
2023/08/02 06:41:03;;;;;;;12.98;6.78;;;;;;;14.87;100.00;99190.22;4996633;28;20440;-78
2023/08/02 06:43:36;;;;;;;16.58;6.85;;;;;;;14.87;100.00;99192.16;4988399;28;20441;-81
2023/08/02 06:46:09;;;;;;;13.70;6.60;;;;;;;14.88;100.00;99191.81;4990909;28;20432;-82
2023/08/02 06:48:42;;;;;;;13.20;6.60;;;;;;;14.99;100.00;99188.63;4990643;28;20429;-81
2023/08/02 06:51:16;;;;;;;11.83;6.17;;;;;;;14.99;100.00;99188.63;4990183;28;20426;-81
2023/08/02 06:53:49;;;;;;;12.40;6.47;;;;;;;14.97;100.00;99197.19;4986595;28;20430;-81
2023/08/02 06:56:18;;;;;;;14.18;6.53;;;;;;;14.94;100.00;99192.38;4987478;28;20447;-81
2023/08/02 06:58:47;;;;;;;12.10;5.78;;;;;;;15.03;100.00;99192.25;5021476;28;20436;-80
2023/08/02 07:01:21;;;;;;;10.82;6.03;;;;;;;14.98;100.00;99190.53;4989138;28;21162;-80
2023/08/02 07:03:55;;;;;;;13.10;6.10;;;;;;;15.09;100.00;99191.66;4989663;28;21261;-80
2023/08/02 07:06:28;;;;;;;13.82;6.20;;;;;;;15.08;100.00;99190.06;4994594;28;20806;-80
2023/08/02 07:09:02;;;;;;;12.18;6.35;;;;;;;15.14;100.00;99187.88;4991749;28;20436;-80
2023/08/02 07:11:37;;;;;;;15.23;7.20;;;;;;;15.13;100.00;99175.31;4989710;28;20420;-80
2023/08/02 07:14:10;;;;;;;11.00;6.40;;;;;;;15.25;100.00;99180.75;4991294;28;20436;-81
2023/08/02 07:16:43;;;;;;;12.13;6.20;;;;;;;15.35;100.00;99171.25;4993151;28;20428;-80
2023/08/02 07:19:16;;;;;;;12.45;6.53;;;;;;;15.53;100.00;99162.72;4998256;28;20426;-81
2023/08/02 07:21:49;;;;;;;9.60;5.65;;;;;;;15.68;100.00;99169.38;4998721;28;20416;-80
2023/08/02 07:24:23;;;;;;;10.27;5.90;;;;;;;15.98;100.00;99167.06;4996656;28;20433;-80
2023/08/02 07:26:53;;;;;;;10.13;5.43;;;;;;;16.01;100.00;99171.06;5003667;28;20442;-81
2023/08/02 07:29:21;;;;;;;11.20;5.00;;;;;;;15.74;100.00;99177.00;4998605;28;20802;-81
2023/08/02 07:31:49;;;;;;;10.95;4.95;;;;;;;15.90;100.00;99179.00;4990473;28;20441;-82
2023/08/02 07:34:18;;;;;;;10.63;4.93;;;;;;;15.94;100.00;99179.91;4992574;28;21616;-80
2023/08/02 07:36:46;;;;;;;14.07;6.05;;;;;;;15.95;100.00;99171.31;5021650;28;20434;-79
2023/08/02 07:39:14;;;;;;;10.75;4.90;;;;;;;15.93;100.00;99173.59;4932456;28;20987;-79
2023/08/02 07:41:47;;;;;;;10.75;4.80;;;;;;;16.03;100.00;99166.78;4965638;28;21115;-79
2023/08/02 07:44:22;;;;;;;10.48;4.63;;;;;;;16.37;100.00;99158.19;4964648;28;20430;-79
2023/08/02 07:46:51;;;;;;;11.13;4.30;;;;;;;16.71;100.00;99144.81;4959828;28;20430;-79
2023/08/02 07:49:19;;;;;;;9.55;4.22;;;;;;;16.88;100.00;99147.19;4951535;28;20436;-80
2023/08/02 07:51:53;;;;;;;12.00;4.22;;;;;;;17.13;100.00;99152.44;4955018;28;20437;-80
2023/08/02 07:54:26;;;;;;;10.60;3.92;;;;;;;17.11;100.00;99165.72;4953818;28;20998;-80
2023/08/02 07:56:54;;;;;;;10.80;3.53;;;;;;;17.26;100.00;99150.31;4981526;28;20447;-79
2023/08/02 07:59:24;;;;;;;12.07;3.70;;;;;;;17.26;100.00;99140.16;4952512;28;20434;-80
2023/08/02 08:01:52;;;;;;;10.15;3.67;;;;;;;17.04;100.00;99144.41;4950772;28;20446;-80
2023/08/02 08:04:25;;;;;;;7.43;3.45;;;;;;;17.00;100.00;99143.53;4951432;28;20438;-80
2023/08/02 08:06:54;;;;;;;11.40;3.55;;;;;;;16.93;100.00;99146.94;4952479;28;20447;-80
2023/08/02 08:09:24;;;;;;;10.00;3.78;;;;;;;17.09;100.00;99140.56;4958356;28;20436;-83
2023/08/02 08:11:52;;;;;;;9.27;3.58;;;;;;;17.04;100.00;99136.16;4959279;28;20426;-82
2023/08/02 08:14:26;;;;;;;8.68;3.78;;;;;;;17.06;100.00;99141.31;4957577;28;20447;-82
2023/08/02 08:16:56;;;;;;;10.17;3.70;;;;;;;16.95;100.00;99139.09;4974751;28;20438;-83
2023/08/02 08:19:24;;;;;;;7.17;3.50;;;;;;;17.06;100.00;99138.56;4982011;28;21161;-83
2023/08/02 08:21:58;;;;;;;7.95;3.22;;;;;;;16.88;100.00;99133.44;4964273;28;20448;-83
2023/08/02 08:24:31;;;;;;;8.45;3.58;;;;;;;16.96;100.00;99137.19;4960965;28;20457;-83
2023/08/02 08:26:59;;;;;;;10.68;3.30;;;;;;;17.07;100.00;99132.69;4961404;28;20453;-83
2023/08/02 08:29:28;;;;;;;8.02;3.10;;;;;;;17.18;100.00;99127.41;4961244;28;20752;-82
2023/08/02 08:32:02;;;;;;;8.82;3.15;;;;;;;17.31;100.00;99130.78;4965404;28;20885;-83
2023/08/02 08:34:30;;;;;;;9.23;3.20;;;;;;;17.16;100.00;99130.50;4950150;28;20434;-82
2023/08/02 08:37:03;;;;;;;9.85;3.40;;;;;;;17.02;100.00;99124.72;4939234;28;20434;-84
2023/08/02 08:39:37;;;;;;;10.23;3.67;;;;;;;16.93;100.00;99124.13;4967435;28;20437;-82
2023/08/02 08:42:12;;;;;;;9.52;3.60;;;;;;;16.95;100.00;99128.13;4959201;28;20774;-83
2023/08/02 08:44:47;;;;;;;10.98;3.90;;;;;;;16.97;100.00;99125.81;4958016;28;20437;-83
2023/08/02 08:47:21;;;;;;;9.80;3.50;;;;;;;17.45;100.00;99128.31;4955317;28;20434;-84
2023/08/02 08:49:59;;;;;;;10.73;3.80;;;;;;;17.94;100.00;99121.34;4960652;28;20448;-83
2023/08/02 08:52:33;;;;;;;8.27;3.30;;;;;;;18.21;100.00;99121.38;4974070;28;20465;-83
2023/08/02 08:55:08;;;;;;;8.40;3.00;;;;;;;17.99;100.00;99122.97;4954378;28;20792;-80
2023/08/02 08:57:37;;;;;;;7.88;3.28;;;;;;;17.82;100.00;99136.03;4953881;28;21092;-81
2023/08/02 09:00:10;;;;;;;10.30;3.15;;;;;;;17.74;100.00;99133.53;4960788;28;20434;-81
2023/08/02 09:02:45;;;;;;;7.95;3.38;;;;;;;17.60;100.00;99134.09;4947648;28;20439;-82
2023/08/02 09:05:18;;;;;;;8.02;3.22;;;;;;;17.59;100.00;99121.47;4950402;28;20441;-81
2023/08/02 09:07:58;;;;;;;7.30;3.55;;;;;;;17.66;100.00;99119.66;4955638;28;20426;-80
2023/08/02 09:10:33;;;;;;;9.65;3.60;;;;;;;17.94;100.00;99115.03;4949155;28;21221;-82
2023/08/02 09:13:06;;;;;;;11.45;3.35;;;;;;;17.77;100.00;99110.78;4954855;28;20446;-81
2023/08/02 09:15:40;;;;;;;11.38;3.33;;;;;;;17.55;100.00;99104.91;4973768;28;20442;-81
2023/08/02 09:18:14;;;;;;;9.05;3.25;;;;;;;17.60;100.00;99098.31;4953354;28;20449;-80
2023/08/02 09:20:54;;;;;;;8.27;3.03;;;;;;;17.71;100.00;99093.00;4958913;28;21632;-82
2023/08/02 09:23:23;;;;;;;8.43;3.40;;;;;;;17.91;100.00;99094.56;4964036;28;20436;-81
2023/08/02 09:25:51;;;;;;;8.80;2.95;;;;;;;17.91;100.00;99080.81;4961194;28;20441;-80
2023/08/02 09:28:24;;;;;;;9.88;2.95;;;;;;;17.96;100.00;99074.97;4963892;28;20508;-81
2023/08/02 09:30:53;;;;;;;10.02;3.42;;;;;;;17.95;100.00;99075.34;4954761;28;20436;-81
2023/08/02 09:33:27;;;;;;;10.30;3.13;;;;;;;17.78;100.00;99069.16;4954022;28;20462;-80
2023/08/02 09:36:00;;;;;;;9.45;3.33;;;;;;;17.92;100.00;99060.34;4958701;28;20921;-81
2023/08/02 09:38:28;;;;;;;12.10;3.63;;;;;;;18.18;100.00;99056.03;4928058;28;20450;-81
2023/08/02 09:41:01;;;;;;;8.60;3.25;;;;;;;18.02;100.00;99059.75;4953783;28;20904;-81
2023/08/02 09:43:34;;;;;;;6.63;3.33;;;;;;;18.04;100.00;99053.09;4950675;28;20565;-81
2023/08/02 09:46:23;;;;;;;9.95;3.25;;;;;;;17.93;100.00;99052.91;4952738;28;22369;-80
2023/08/02 09:48:57;;;;;;;8.00;3.00;;;;;;;17.69;100.00;99057.63;4952292;28;20440;-79
2023/08/02 09:51:40;;;;;;;11.90;3.10;;;;;;;17.73;100.00;99050.22;4950865;28;20481;-80
2023/08/02 09:54:08;;;;;;;9.68;3.53;;;;;;;17.49;100.00;99046.66;4951880;28;20446;-80
2023/08/02 09:56:38;;;;;;;7.73;3.00;;;;;;;17.38;100.00;99044.91;4952046;28;20798;-80
2023/08/02 09:59:12;;;;;;;8.20;3.10;;;;;;;17.43;100.00;99044.59;4945955;28;20477;-81
2023/08/02 10:01:45;;;;;;;9.18;3.30;;;;;;;17.56;100.00;99048.75;4947979;28;20444;-79
2023/08/02 10:04:21;;;;;;;11.60;3.35;;;;;;;17.71;100.00;99027.00;4947229;28;20434;-81
2023/08/02 10:06:56;;;;;;;9.05;3.17;;;;;;;17.76;100.00;99018.41;4953429;28;20433;-81
2023/08/02 10:09:29;;;;;;;9.07;3.38;;;;;;;17.97;100.00;99005.00;4948724;28;20462;-81
2023/08/02 10:12:02;;;;;;;9.60;3.13;;;;;;;18.07;100.00;99005.53;4952554;28;20442;-82
2023/08/02 10:14:36;;;;;;;9.43;2.95;;;;;;;17.99;100.00;98999.94;4954347;28;20434;-82
2023/08/02 10:17:11;;;;;;;9.57;3.20;;;;;;;18.08;100.00;99010.66;4950809;28;20430;-81
2023/08/02 10:19:45;;;;;;;7.28;3.20;;;;;;;18.07;100.00;99005.53;4953369;28;20445;-81
2023/08/02 10:22:14;;;;;;;10.32;3.30;;;;;;;18.07;100.00;98998.06;4953469;28;20447;-80
2023/08/02 10:24:48;;;;;;;8.05;3.50;;;;;;;18.07;100.00;98998.06;4954815;28;21270;-80
2023/08/02 10:27:17;;;;;;;8.63;3.70;;;;;;;18.26;100.00;98994.41;4946433;28;20437;-79
2023/08/02 10:29:51;;;;;;;8.07;3.72;;;;;;;18.32;100.00;98990.13;4954946;28;20432;-81
2023/08/02 10:32:21;;;;;;;8.73;3.80;;;;;;;18.22;100.00;98976.25;4952081;28;20444;-80
2023/08/02 10:34:56;;;;;;;9.95;3.75;;;;;;;18.31;100.00;98974.81;4950587;28;20434;-81
2023/08/02 10:37:52;;;;;;;11.98;4.40;;;;;;;18.49;100.00;98971.47;4924458;28;21425;-81
2023/08/02 10:40:22;;;;;;;12.15;3.80;;;;;;;18.62;100.00;98972.03;4955980;28;20431;-82
2023/08/02 10:43:03;;;;;;;9.95;3.70;;;;;;;18.50;100.00;98973.06;4954249;28;20437;-81
2023/08/02 10:45:37;;;;;;;7.38;3.38;;;;;;;18.34;100.00;98976.81;4952143;28;20424;-81
2023/08/02 10:48:27;;;;;;;14.88;3.80;;;;;;;18.09;100.00;98981.19;4953381;28;20429;-81
2023/08/02 10:50:56;;;;;;;11.27;3.70;;;;;;;18.05;100.00;98972.06;4952953;28;20675;-82
2023/08/02 10:53:29;;;;;;;9.77;3.75;;;;;;;17.83;100.00;98972.53;4955586;28;20435;-81
2023/08/02 10:56:05;;;;;;;12.95;6.97;;;;;;;17.72;100.00;98971.59;4967974;28;20962;-82
2023/08/02 10:58:50;;;;;;;8.75;4.00;;;;;;;17.80;100.00;98966.97;4949338;28;20432;-80
2023/08/02 11:01:23;;;;;;;11.02;4.15;;;;;;;17.87;100.00;98967.09;4952597;28;20453;-80
2023/08/02 11:03:53;;;;;;;11.50;4.10;;;;;;;17.88;100.00;98963.16;4953602;28;20437;-81
2023/08/02 11:06:32;;;;;;;12.50;4.37;;;;;;;17.91;100.00;98956.13;4955335;28;21067;-81
2023/08/02 11:09:06;;;;;;;9.77;4.40;;;;;;;17.87;100.00;98944.28;4957580;28;20834;-81
2023/08/02 11:11:39;;;;;;;12.88;3.92;;;;;;;17.92;100.00;98949.50;4950903;28;20443;-80
2023/08/02 11:14:07;;;;;;;11.52;4.15;;;;;;;17.80;100.00;98943.03;4954919;28;20438;-81
2023/08/02 11:16:39;;;;;;;8.13;4.13;;;;;;;17.76;100.00;98931.16;4962671;28;20445;-81
2023/08/02 11:19:14;;;;;;;8.67;4.00;;;;;;;17.83;100.00;98922.22;4957597;28;20438;-81
2023/08/02 11:21:53;;;;;;;7.07;3.90;;;;;;;17.75;100.00;98909.53;4960055;28;20453;-81
2023/08/02 11:24:21;;;;;;;10.35;4.05;;;;;;;17.71;100.00;98903.97;4958473;28;20472;-80
2023/08/02 11:26:55;;;;;;;8.70;3.85;;;;;;;17.78;100.00;98897.78;4956491;28;21027;-80
2023/08/02 11:29:28;;;;;;;8.90;3.60;;;;;;;17.74;100.00;98891.44;4960485;28;21142;-80
2023/08/02 11:32:02;;;;;;;8.93;4.00;;;;;;;17.67;100.00;98903.91;4956788;28;20441;-80
2023/08/02 11:34:39;;;;;;;9.52;3.70;;;;;;;17.64;100.00;98904.66;4968870;28;20438;-80
2023/08/02 11:37:09;;;;;;;9.77;3.60;;;;;;;17.73;100.00;98907.16;4953935;28;21365;-81
2023/08/02 11:39:51;;;;;;;12.68;3.80;;;;;;;17.81;100.00;98906.06;4948279;28;21145;-80
2023/08/02 11:42:19;;;;;;;10.10;3.90;;;;;;;17.85;100.00;98909.66;4970555;28;20445;-81
2023/08/02 11:44:48;;;;;;;10.20;3.57;;;;;;;18.02;100.00;98907.56;4974205;28;20420;-80
2023/08/02 11:47:21;;;;;;;10.50;3.80;;;;;;;18.13;100.00;98900.25;4973376;28;21260;-80